首页
METAR-TAF:

METAR-TAF

机场 :

Duplin County Airport

Kenansville, 北卡罗来纳州, 美国

纬度: 35-00-00N, 经度: 077-58-54W, 海拔: 42米

当前天气观测

该预报发布于21分钟前的19:35 UTC
风速12节,风向,有时为17节阵风
温度 10°C
湿度 82%
气压 1013 hPa
能見度: 16.1公里
阴天层高于1800英尺

METAR: KDPL 171935Z AUTO 01012G17KT 10SM OVC018 10/07 A2992 RMK AO2

时间: 14:56 (19:56 UTC)


TAF: 丢失

超过4000个机场的气象观测和天气预报(METAR&TAF报告)。

可查询的气象台以黄色和红色小点在地图上表示。

将鼠标移到小点上方,可查看气象台名称。

然后点击查看天气观测和预报。

如需切换地图:点击带黑十字的绿色按钮放大地图;点击带横线的绿色按钮缩小地图;或者点击绿色箭头查看邻近地区的地图。


METAR-TAF: